sensor_id;sensor_type;location;lat;lon;timestamp;pressure;altitude;pressure_sealevel;temperature;humidity
13612;BME280;6877;51.436;6.774;2023-04-07T00:00:24;100932.31;;;6.65;100.00
13612;BME280;6877;51.436;6.774;2023-04-07T00:02:55;100938.38;;;6.66;100.00
13612;BME280;6877;51.436;6.774;2023-04-07T00:05:22;100944.44;;;6.66;100.00
13612;BME280;6877;51.436;6.774;2023-04-07T00:07:48;100940.94;;;6.67;100.00
13612;BME280;6877;51.436;6.774;2023-04-07T00:10:20;100946.16;;;6.67;100.00
13612;BME280;6877;51.436;6.774;2023-04-07T00:12:46;100939.22;;;6.66;100.00
13612;BME280;6877;51.436;6.774;2023-04-07T00:15:13;100935.75;;;6.66;100.00
13612;BME280;6877;51.436;6.774;2023-04-07T00:17:39;100940.09;;;6.65;100.00
13612;BME280;6877;51.436;6.774;2023-04-07T00:20:06;100941.81;;;6.66;100.00
13612;BME280;6877;51.436;6.774;2023-04-07T00:22:33;100941.81;;;6.65;100.00
13612;BME280;6877;51.436;6.774;2023-04-07T00:24:59;100942.69;;;6.65;100.00
13612;BME280;6877;51.436;6.774;2023-04-07T00:27:26;100940.94;;;6.64;100.00
13612;BME280;6877;51.436;6.774;2023-04-07T00:29:57;100941.81;;;6.65;100.00
13612;BME280;6877;51.436;6.774;2023-04-07T00:32:23;100947.00;;;6.65;100.00
13612;BME280;6877;51.436;6.774;2023-04-07T00:34:50;100942.69;;;6.64;100.00
13612;BME280;6877;51.436;6.774;2023-04-07T00:37:21;100943.56;;;6.66;100.00
13612;BME280;6877;51.436;6.774;2023-04-07T00:39:49;100940.94;;;6.67;100.00
13612;BME280;6877;51.436;6.774;2023-04-07T00:42:21;100947.03;;;6.69;100.00
13612;BME280;6877;51.436;6.774;2023-04-07T00:44:48;100947.03;;;6.72;100.00
13612;BME280;6877;51.436;6.774;2023-04-07T00:47:19;100940.94;;;6.73;100.00
13612;BME280;6877;51.436;6.774;2023-04-07T00:49:45;100934.88;;;6.73;100.00
13612;BME280;6877;51.436;6.774;2023-04-07T00:52:18;100936.59;;;6.71;100.00
13612;BME280;6877;51.436;6.774;2023-04-07T00:54:55;100931.41;;;6.71;100.00
13612;BME280;6877;51.436;6.774;2023-04-07T00:57:27;100927.09;;;6.68;100.00
13612;BME280;6877;51.436;6.774;2023-04-07T00:59:58;100938.38;;;6.69;100.00
13612;BME280;6877;51.436;6.774;2023-04-07T01:05:14;100931.41;;;6.71;100.00
13612;BME280;6877;51.436;6.774;2023-04-07T01:10:40;100917.56;;;6.75;100.00
13612;BME280;6877;51.436;6.774;2023-04-07T01:15:49;100927.97;;;6.81;100.00
13612;BME280;6877;51.436;6.774;2023-04-07T01:18:23;100921.88;;;6.84;100.00
13612;BME280;6877;51.436;6.774;2023-04-07T01:21:05;100925.34;;;6.89;100.00
13612;BME280;6877;51.436;6.774;2023-04-07T01:26:19;100919.25;;;6.96;100.00
13612;BME280;6877;51.436;6.774;2023-04-07T01:29:22;100915.81;;;7.03;100.00
13612;BME280;6877;51.436;6.774;2023-04-07T01:31:57;100914.06;;;7.10;100.00
13612;BME280;6877;51.436;6.774;2023-04-07T01:34:25;100920.13;;;7.13;100.00
13612;BME280;6877;51.436;6.774;2023-04-07T01:36:59;100920.13;;;7.16;100.00
13612;BME280;6877;51.436;6.774;2023-04-07T01:39:32;100920.09;;;7.23;100.00
13612;BME280;6877;51.436;6.774;2023-04-07T01:42:00;100925.31;;;7.26;100.00
13612;BME280;6877;51.436;6.774;2023-04-07T01:44:31;100923.53;;;7.28;100.00
13612;BME280;6877;51.436;6.774;2023-04-07T01:46:58;100927.03;;;7.30;100.00
13612;BME280;6877;51.436;6.774;2023-04-07T01:49:26;100927.00;;;7.31;100.00
13612;BME280;6877;51.436;6.774;2023-04-07T01:51:59;100925.28;;;7.32;100.00
13612;BME280;6877;51.436;6.774;2023-04-07T01:54:26;100931.38;;;7.32;100.00
13612;BME280;6877;51.436;6.774;2023-04-07T01:56:53;100919.22;;;7.33;100.00
13612;BME280;6877;51.436;6.774;2023-04-07T01:59:20;100925.28;;;7.35;100.00
13612;BME280;6877;51.436;6.774;2023-04-07T02:01:51;100920.91;;;7.37;100.00
13612;BME280;6877;51.436;6.774;2023-04-07T02:04:26;100922.66;;;7.36;100.00
13612;BME280;6877;51.436;6.774;2023-04-07T02:07:09;100923.53;;;7.37;100.00
13612;BME280;6877;51.436;6.774;2023-04-07T02:09:38;100921.78;;;7.37;100.00
13612;BME280;6877;51.436;6.774;2023-04-07T02:12:13;100927.00;;;7.39;100.00
13612;BME280;6877;51.436;6.774;2023-04-07T02:14:41;100929.59;;;7.39;100.00
13612;BME280;6877;51.436;6.774;2023-04-07T02:17:14;100921.78;;;7.39;100.00
13612;BME280;6877;51.436;6.774;2023-04-07T02:19:41;100926.16;;;7.38;100.00
13612;BME280;6877;51.436;6.774;2023-04-07T02:22:14;100930.50;;;7.38;100.00
13612;BME280;6877;51.436;6.774;2023-04-07T02:24:41;100925.25;;;7.39;100.00
13612;BME280;6877;51.436;6.774;2023-04-07T02:27:08;100932.22;;;7.39;100.00
13612;BME280;6877;51.436;6.774;2023-04-07T02:29:34;100933.94;;;7.41;100.00
13612;BME280;6877;51.436;6.774;2023-04-07T02:32:01;100932.19;;;7.42;100.00
13612;BME280;6877;51.436;6.774;2023-04-07T02:34:32;100930.47;;;7.41;100.00
13612;BME280;6877;51.436;6.774;2023-04-07T02:37:04;100931.31;;;7.40;100.00
13612;BME280;6877;51.436;6.774;2023-04-07T02:39:30;100931.34;;;7.41;100.00
13612;BME280;6877;51.436;6.774;2023-04-07T02:42:02;100926.97;;;7.40;100.00
13612;BME280;6877;51.436;6.774;2023-04-07T02:44:28;100929.59;;;7.40;100.00
13612;BME280;6877;51.436;6.774;2023-04-07T02:46:54;100929.59;;;7.39;100.00
13612;BME280;6877;51.436;6.774;2023-04-07T02:49:21;100931.31;;;7.40;100.00
13612;BME280;6877;51.436;6.774;2023-04-07T02:51:47;100936.53;;;7.40;100.00
13612;BME280;6877;51.436;6.774;2023-04-07T02:54:14;100936.53;;;7.40;100.00
13612;BME280;6877;51.436;6.774;2023-04-07T02:56:40;100941.75;;;7.40;100.00
13612;BME280;6877;51.436;6.774;2023-04-07T02:59:07;100938.31;;;7.38;100.00
13612;BME280;6877;51.436;6.774;2023-04-07T03:01:33;100939.16;;;7.37;100.00
13612;BME280;6877;51.436;6.774;2023-04-07T03:04:06;100940.88;;;7.36;100.00
13612;BME280;6877;51.436;6.774;2023-04-07T03:06:37;100940.00;;;7.37;100.00
13612;BME280;6877;51.436;6.774;2023-04-07T03:09:04;100939.16;;;7.37;100.00
13612;BME280;6877;51.436;6.774;2023-04-07T03:11:30;100936.56;;;7.34;100.00
13612;BME280;6877;51.436;6.774;2023-04-07T03:13:59;100933.94;;;7.34;100.00
13612;BME280;6877;51.436;6.774;2023-04-07T03:16:30;100942.63;;;7.33;100.00
13612;BME280;6877;51.436;6.774;2023-04-07T03:18:57;100943.53;;;7.32;100.00
13612;BME280;6877;51.436;6.774;2023-04-07T03:21:23;100942.63;;;7.33;100.00
13612;BME280;6877;51.436;6.774;2023-04-07T03:23:54;100943.53;;;7.32;100.00
13612;BME280;6877;51.436;6.774;2023-04-07T03:26:26;100946.13;;;7.32;100.00
13612;BME280;6877;51.436;6.774;2023-04-07T03:28:52;100940.03;;;7.31;100.00
13612;BME280;6877;51.436;6.774;2023-04-07T03:31:19;100942.63;;;7.33;100.00
13612;BME280;6877;51.436;6.774;2023-04-07T03:33:45;100949.56;;;7.31;100.00
13612;BME280;6877;51.436;6.774;2023-04-07T03:36:11;100949.56;;;7.31;100.00
13612;BME280;6877;51.436;6.774;2023-04-07T03:38:45;100941.75;;;7.28;100.00
13612;BME280;6877;51.436;6.774;2023-04-07T03:41:12;100942.66;;;7.25;100.00
13612;BME280;6877;51.436;6.774;2023-04-07T03:43:38;100940.03;;;7.27;100.00
13612;BME280;6877;51.436;6.774;2023-04-07T03:46:06;100948.72;;;7.27;100.00
13612;BME280;6877;51.436;6.774;2023-04-07T03:48:37;100948.72;;;7.27;100.00
13612;BME280;6877;51.436;6.774;2023-04-07T03:51:03;100949.59;;;7.25;100.00
13612;BME280;6877;51.436;6.774;2023-04-07T03:53:30;100951.31;;;7.24;100.00
13612;BME280;6877;51.436;6.774;2023-04-07T03:55:56;100952.19;;;7.23;100.00
13612;BME280;6877;51.436;6.774;2023-04-07T03:58:23;100960.88;;;7.25;100.00
13612;BME280;6877;51.436;6.774;2023-04-07T04:00:49;100955.66;;;7.27;100.00
13612;BME280;6877;51.436;6.774;2023-04-07T04:03:16;100954.78;;;7.25;100.00
13612;BME280;6877;51.436;6.774;2023-04-07T04:05:47;100962.63;;;7.23;100.00
13612;BME280;6877;51.436;6.774;2023-04-07T04:08:13;100951.31;;;7.21;100.00
13612;BME280;6877;51.436;6.774;2023-04-07T04:10:40;100951.34;;;7.19;100.00
13612;BME280;6877;51.436;6.774;2023-04-07T04:13:06;100956.56;;;7.19;100.00
13612;BME280;6877;51.436;6.774;2023-04-07T04:15:33;100958.28;;;7.19;100.00
13612;BME280;6877;51.436;6.774;2023-04-07T04:17:59;100965.22;;;7.18;100.00
13612;BME280;6877;51.436;6.774;2023-04-07T04:20:26;100963.47;;;7.17;100.00
13612;BME280;6877;51.436;6.774;2023-04-07T04:22:52;100972.16;;;7.18;100.00
13612;BME280;6877;51.436;6.774;2023-04-07T04:25:19;100972.16;;;7.16;100.00
13612;BME280;6877;51.436;6.774;2023-04-07T04:27:45;100971.31;;;7.16;100.00
13612;BME280;6877;51.436;6.774;2023-04-07T04:30:17;100972.16;;;7.16;100.00
13612;BME280;6877;51.436;6.774;2023-04-07T04:32:48;100975.63;;;7.15;100.00
13612;BME280;6877;51.436;6.774;2023-04-07T04:35:20;100982.56;;;7.15;100.00
13612;BME280;6877;51.436;6.774;2023-04-07T04:37:47;100979.13;;;7.13;100.00
13612;BME280;6877;51.436;6.774;2023-04-07T04:40:18;100979.09;;;7.11;100.00
13612;BME280;6877;51.436;6.774;2023-04-07T04:42:44;100980.84;;;7.11;100.00
13612;BME280;6877;51.436;6.774;2023-04-07T04:45:16;100988.66;;;7.09;100.00
13612;BME280;6877;51.436;6.774;2023-04-07T04:47:47;100982.59;;;7.10;100.00
13612;BME280;6877;51.436;6.774;2023-04-07T04:50:19;100991.28;;;7.09;100.00
13612;BME280;6877;51.436;6.774;2023-04-07T04:52:46;100990.38;;;7.09;100.00
13612;BME280;6877;51.436;6.774;2023-04-07T04:55:17;100991.28;;;7.06;100.00
13612;BME280;6877;51.436;6.774;2023-04-07T04:57:48;100997.31;;;7.05;100.00
13612;BME280;6877;51.436;6.774;2023-04-07T05:00:15;100998.19;;;7.04;100.00
13612;BME280;6877;51.436;6.774;2023-04-07T05:02:42;101006.00;;;7.03;100.00
13612;BME280;6877;51.436;6.774;2023-04-07T05:05:08;101000.78;;;7.03;100.00
13612;BME280;6877;51.436;6.774;2023-04-07T05:07:40;101003.41;;;7.01;100.00
13612;BME280;6877;51.436;6.774;2023-04-07T05:10:07;101004.25;;;7.02;100.00
13612;BME280;6877;51.436;6.774;2023-04-07T05:12:34;101010.34;;;7.02;100.00
13612;BME280;6877;51.436;6.774;2023-04-07T05:15:00;101011.19;;;7.00;100.00
13612;BME280;6877;51.436;6.774;2023-04-07T05:17:32;101011.22;;;7.01;100.00
13612;BME280;6877;51.436;6.774;2023-04-07T05:20:03;101012.94;;;6.99;100.00
13612;BME280;6877;51.436;6.774;2023-04-07T05:22:30;101015.53;;;6.99;100.00
13612;BME280;6877;51.436;6.774;2023-04-07T05:25:01;101015.53;;;6.96;100.00
13612;BME280;6877;51.436;6.774;2023-04-07T05:27:33;101019.88;;;6.92;100.00
13612;BME280;6877;51.436;6.774;2023-04-07T05:29:59;101022.47;;;6.92;100.00
13612;BME280;6877;51.436;6.774;2023-04-07T05:32:31;101017.28;;;6.91;100.00
13612;BME280;6877;51.436;6.774;2023-04-07T05:34:57;101025.94;;;6.91;100.00
13612;BME280;6877;51.436;6.774;2023-04-07T05:37:24;101017.28;;;6.91;100.00
13612;BME280;6877;51.436;6.774;2023-04-07T05:39:50;101025.94;;;6.91;100.00
13612;BME280;6877;51.436;6.774;2023-04-07T05:42:22;101024.22;;;6.92;100.00
13612;BME280;6877;51.436;6.774;2023-04-07T05:44:53;101033.75;;;6.91;100.00
13612;BME280;6877;51.436;6.774;2023-04-07T05:47:19;101038.94;;;6.90;100.00
13612;BME280;6877;51.436;6.774;2023-04-07T05:49:46;101030.28;;;6.89;100.00
13612;BME280;6877;51.436;6.774;2023-04-07T05:52:13;101035.47;;;6.89;100.00
13612;BME280;6877;51.436;6.774;2023-04-07T05:54:45;101045.03;;;6.92;100.00
13612;BME280;6877;51.436;6.774;2023-04-07T05:57:16;101039.81;;;6.93;100.00
13612;BME280;6877;51.436;6.774;2023-04-07T05:59:43;101048.50;;;6.95;100.00
13612;BME280;6877;51.436;6.774;2023-04-07T06:02:09;101045.91;;;6.95;100.00
13612;BME280;6877;51.436;6.774;2023-04-07T06:04:35;101052.84;;;6.95;100.00
13612;BME280;6877;51.436;6.774;2023-04-07T06:07:09;101050.22;;;6.95;100.00
13612;BME280;6877;51.436;6.774;2023-04-07T06:09:36;101055.41;;;6.96;100.00
13612;BME280;6877;51.436;6.774;2023-04-07T06:12:07;101053.72;;;6.97;100.00
13612;BME280;6877;51.436;6.774;2023-04-07T06:14:34;101069.31;;;6.99;100.00
13612;BME280;6877;51.436;6.774;2023-04-07T06:17:01;101061.50;;;6.99;100.00
13612;BME280;6877;51.436;6.774;2023-04-07T06:19:32;101058.03;;;7.00;100.00
13612;BME280;6877;51.436;6.774;2023-04-07T06:21:59;101066.72;;;7.00;100.00
13612;BME280;6877;51.436;6.774;2023-04-07T06:24:30;101065.00;;;7.01;100.00
13612;BME280;6877;51.436;6.774;2023-04-07T06:27:02;101063.25;;;7.01;100.00
13612;BME280;6877;51.436;6.774;2023-04-07T06:29:34;101069.34;;;7.03;100.00
13612;BME280;6877;51.436;6.774;2023-04-07T06:32:00;101067.56;;;7.02;100.00
13612;BME280;6877;51.436;6.774;2023-04-07T06:34:27;101064.97;;;7.05;100.00
13612;BME280;6877;51.436;6.774;2023-04-07T06:36:53;101068.44;;;7.09;100.00
13612;BME280;6877;51.436;6.774;2023-04-07T06:39:20;101076.28;;;7.07;100.00
13612;BME280;6877;51.436;6.774;2023-04-07T06:41:47;101071.94;;;7.08;100.00
13612;BME280;6877;51.436;6.774;2023-04-07T06:44:13;101078.00;;;7.08;100.00
13612;BME280;6877;51.436;6.774;2023-04-07T06:46:39;101076.25;;;7.09;100.00
13612;BME280;6877;51.436;6.774;2023-04-07T06:49:07;101084.09;;;7.10;100.00
13612;BME280;6877;51.436;6.774;2023-04-07T06:51:38;101085.81;;;7.16;100.00
13612;BME280;6877;51.436;6.774;2023-04-07T06:54:10;101081.50;;;7.26;100.00
13612;BME280;6877;51.436;6.774;2023-04-07T06:56:44;101092.75;;;7.34;100.00
13612;BME280;6877;51.436;6.774;2023-04-07T06:59:16;101093.63;;;7.36;100.00
13612;BME280;6877;51.436;6.774;2023-04-07T07:01:42;101093.63;;;7.39;100.00
13612;BME280;6877;51.436;6.774;2023-04-07T07:04:15;101088.41;;;7.43;100.00
13612;BME280;6877;51.436;6.774;2023-04-07T07:06:41;101093.63;;;7.48;100.00
13612;BME280;6877;51.436;6.774;2023-04-07T07:09:08;101098.84;;;7.45;100.00
13612;BME280;6877;51.436;6.774;2023-04-07T07:11:39;101100.59;;;7.41;100.00
13612;BME280;6877;51.436;6.774;2023-04-07T07:14:11;101097.13;;;7.44;100.00
13612;BME280;6877;51.436;6.774;2023-04-07T07:16:42;101097.13;;;7.44;100.00
13612;BME280;6877;51.436;6.774;2023-04-07T07:19:08;101097.09;;;7.46;100.00
13612;BME280;6877;51.436;6.774;2023-04-07T07:21:35;101097.09;;;7.50;100.00
13612;BME280;6877;51.436;6.774;2023-04-07T07:24:07;101102.31;;;7.50;100.00
13612;BME280;6877;51.436;6.774;2023-04-07T07:26:38;101109.28;;;7.57;100.00
13612;BME280;6877;51.436;6.774;2023-04-07T07:29:06;101107.50;;;7.59;100.00
13612;BME280;6877;51.436;6.774;2023-04-07T07:31:37;101108.41;;;7.63;100.00
13612;BME280;6877;51.436;6.774;2023-04-07T07:34:09;101110.13;;;7.67;100.00
13612;BME280;6877;51.436;6.774;2023-04-07T07:36:40;101111.00;;;7.68;100.00
13612;BME280;6877;51.436;6.774;2023-04-07T07:39:07;101110.13;;;7.67;100.00
13612;BME280;6877;51.436;6.774;2023-04-07T07:41:33;101119.69;;;7.66;100.00
13612;BME280;6877;51.436;6.774;2023-04-07T07:43:59;101122.28;;;7.65;100.00
13612;BME280;6877;51.436;6.774;2023-04-07T07:46:26;101129.22;;;7.68;100.00
13612;BME280;6877;51.436;6.774;2023-04-07T07:48:52;101119.69;;;7.66;100.00
13612;BME280;6877;51.436;6.774;2023-04-07T07:51:18;101130.09;;;7.66;100.00
13612;BME280;6877;51.436;6.774;2023-04-07T07:53:45;101133.56;;;7.69;100.00
13612;BME280;6877;51.436;6.774;2023-04-07T07:56:12;101135.31;;;7.63;100.00
13612;BME280;6877;51.436;6.774;2023-04-07T07:58:38;101136.19;;;7.58;100.00
13612;BME280;6877;51.436;6.774;2023-04-07T08:01:05;101144.88;;;7.57;100.00
13612;BME280;6877;51.436;6.774;2023-04-07T08:03:31;101143.09;;;7.56;100.00
13612;BME280;6877;51.436;6.774;2023-04-07T08:05:57;101138.75;;;7.56;100.00
13612;BME280;6877;51.436;6.774;2023-04-07T08:08:24;101145.72;;;7.57;100.00
13612;BME280;6877;51.436;6.774;2023-04-07T08:10:55;101134.44;;;7.54;100.00
13612;BME280;6877;51.436;6.774;2023-04-07T08:13:21;101153.53;;;7.54;100.00
13612;BME280;6877;51.436;6.774;2023-04-07T08:15:53;101149.19;;;7.55;100.00
13612;BME280;6877;51.436;6.774;2023-04-07T08:18:19;101153.53;;;7.56;100.00
13612;BME280;6877;51.436;6.774;2023-04-07T08:20:46;101153.53;;;7.54;100.00
13612;BME280;6877;51.436;6.774;2023-04-07T08:23:17;101151.78;;;7.56;100.00
13612;BME280;6877;51.436;6.774;2023-04-07T08:25:43;101149.19;;;7.65;100.00
13612;BME280;6877;51.436;6.774;2023-04-07T08:28:10;101156.16;;;7.66;100.00
13612;BME280;6877;51.436;6.774;2023-04-07T08:30:36;101168.28;;;7.64;100.00
13612;BME280;6877;51.436;6.774;2023-04-07T08:33:08;101168.28;;;7.64;100.00
13612;BME280;6877;51.436;6.774;2023-04-07T08:35:34;101165.72;;;7.66;100.00
13612;BME280;6877;51.436;6.774;2023-04-07T08:38:06;101168.28;;;7.69;100.00
13612;BME280;6877;51.436;6.774;2023-04-07T08:40:39;101174.38;;;7.73;100.00
13612;BME280;6877;51.436;6.774;2023-04-07T08:43:07;101178.72;;;7.68;100.00
13612;BME280;6877;51.436;6.774;2023-04-07T08:45:40;101180.44;;;7.62;100.00
13612;BME280;6877;51.436;6.774;2023-04-07T08:48:16;101177.84;;;7.61;100.00
13612;BME280;6877;51.436;6.774;2023-04-07T08:50:44;101189.16;;;7.63;100.00
13612;BME280;6877;51.436;6.774;2023-04-07T08:53:17;101191.75;;;7.64;100.00
13612;BME280;6877;51.436;6.774;2023-04-07T08:55:45;101179.56;;;7.62;100.00
13612;BME280;6877;51.436;6.774;2023-04-07T08:58:17;101185.66;;;7.62;100.00
13612;BME280;6877;51.436;6.774;2023-04-07T09:00:49;101187.41;;;7.66;100.00
13612;BME280;6877;51.436;6.774;2023-04-07T09:03:22;101196.06;;;7.65;100.00
13612;BME280;6877;51.436;6.774;2023-04-07T09:05:54;101196.94;;;7.68;100.00
13612;BME280;6877;51.436;6.774;2023-04-07T09:08:21;101199.56;;;7.74;100.00
13612;BME280;6877;51.436;6.774;2023-04-07T09:10:48;101199.56;;;7.77;100.00
13612;BME280;6877;51.436;6.774;2023-04-07T09:13:15;101188.25;;;7.81;100.00
13612;BME280;6877;51.436;6.774;2023-04-07T09:15:46;101196.09;;;7.87;100.00
13612;BME280;6877;51.436;6.774;2023-04-07T09:18:13;101207.38;;;7.87;100.00
13612;BME280;6877;51.436;6.774;2023-04-07T09:23:32;101199.56;;;7.92;100.00
13612;BME280;6877;51.436;6.774;2023-04-07T09:26:01;101216.06;;;7.97;100.00
13612;BME280;6877;51.436;6.774;2023-04-07T09:28:44;101210.84;;;8.00;100.00
13612;BME280;6877;51.436;6.774;2023-04-07T09:31:11;101215.19;;;7.98;100.00
13612;BME280;6877;51.436;6.774;2023-04-07T09:33:37;101216.06;;;7.99;100.00
13612;BME280;6877;51.436;6.774;2023-04-07T09:36:09;101211.72;;;8.01;100.00
13612;BME280;6877;51.436;6.774;2023-04-07T09:38:37;101205.63;;;8.05;100.00
13612;BME280;6877;51.436;6.774;2023-04-07T09:41:09;101208.25;;;8.08;100.00
13612;BME280;6877;51.436;6.774;2023-04-07T09:43:43;101205.63;;;8.17;100.00
13612;BME280;6877;51.436;6.774;2023-04-07T09:46:18;101207.31;;;8.26;100.00
13612;BME280;6877;51.436;6.774;2023-04-07T09:49:02;101212.53;;;8.35;100.00
13612;BME280;6877;51.436;6.774;2023-04-07T09:51:32;101207.34;;;8.40;100.00
13612;BME280;6877;51.436;6.774;2023-04-07T09:53:59;101208.19;;;8.46;100.00
13612;BME280;6877;51.436;6.774;2023-04-07T09:56:25;101211.69;;;8.51;100.00
13612;BME280;6877;51.436;6.774;2023-04-07T09:58:57;101210.78;;;8.51;100.00
13612;BME280;6877;51.436;6.774;2023-04-07T10:01:24;101213.41;;;8.46;100.00
13612;BME280;6877;51.436;6.774;2023-04-07T10:03:51;101214.28;;;8.44;100.00
13612;BME280;6877;51.436;6.774;2023-04-07T10:06:18;101216.88;;;8.54;100.00
13612;BME280;6877;51.436;6.774;2023-04-07T10:08:45;101218.59;;;8.58;100.00
13612;BME280;6877;51.436;6.774;2023-04-07T10:11:17;101210.78;;;8.58;100.00
13612;BME280;6877;51.436;6.774;2023-04-07T10:13:44;101214.22;;;8.64;100.00
13612;BME280;6877;51.436;6.774;2023-04-07T10:16:16;101218.59;;;8.68;100.00
13612;BME280;6877;51.436;6.774;2023-04-07T10:18:43;101218.59;;;8.68;100.00
13612;BME280;6877;51.436;6.774;2023-04-07T10:21:10;101220.31;;;8.63;100.00
13612;BME280;6877;51.436;6.774;2023-04-07T10:24:02;101222.94;;;8.56;100.00
13612;BME280;6877;51.436;6.774;2023-04-07T10:26:34;101236.00;;;8.55;100.00
13612;BME280;6877;51.436;6.774;2023-04-07T10:29:06;101226.44;;;8.54;100.00
13612;BME280;6877;51.436;6.774;2023-04-07T10:31:35;101225.56;;;8.56;100.00
13612;BME280;6877;51.436;6.774;2023-04-07T10:34:07;101228.19;;;8.58;100.00
13612;BME280;6877;51.436;6.774;2023-04-07T10:36:34;101236.00;;;8.59;100.00
13612;BME280;6877;51.436;6.774;2023-04-07T10:41:37;101244.69;;;8.68;100.00
13612;BME280;6877;51.436;6.774;2023-04-07T10:44:05;101238.59;;;8.66;100.00
13612;BME280;6877;51.436;6.774;2023-04-07T10:49:14;101241.19;;;8.69;100.00
13612;BME280;6877;51.436;6.774;2023-04-07T10:54:37;101247.25;;;8.78;100.00
13612;BME280;6877;51.436;6.774;2023-04-07T10:57:16;101254.13;;;8.98;100.00
13612;BME280;6877;51.436;6.774;2023-04-07T11:02:43;101253.16;;;9.25;100.00
13612;BME280;6877;51.436;6.774;2023-04-07T11:05:21;101257.47;;;9.34;100.00
13612;BME280;6877;51.436;6.774;2023-04-07T11:07:53;101249.56;;;9.41;100.00
13612;BME280;6877;51.436;6.774;2023-04-07T11:10:27;101253.81;;;9.61;100.00
13612;BME280;6877;51.436;6.774;2023-04-07T11:12:58;101260.59;;;9.88;100.00
13612;BME280;6877;51.436;6.774;2023-04-07T11:15:25;101259.50;;;10.13;100.00
13612;BME280;6877;51.436;6.774;2023-04-07T11:20:50;101258.28;;;10.53;100.00
13612;BME280;6877;51.436;6.774;2023-04-07T11:23:18;101252.72;;;10.85;100.00
13612;BME280;6877;51.436;6.774;2023-04-07T11:25:47;101258.53;;;11.10;100.00
13612;BME280;6877;51.436;6.774;2023-04-07T11:28:14;101260.16;;;11.20;100.00
13612;BME280;6877;51.436;6.774;2023-04-07T11:30:46;101266.28;;;11.18;100.00
13612;BME280;6877;51.436;6.774;2023-04-07T11:33:15;101259.66;;;10.87;100.00
13612;BME280;6877;51.436;6.774;2023-04-07T11:35:58;101251.03;;;10.79;100.00
13612;BME280;6877;51.436;6.774;2023-04-07T11:38:28;101267.84;;;10.60;100.00
13612;BME280;6877;51.436;6.774;2023-04-07T11:40:55;101263.59;;;10.48;100.00
13612;BME280;6877;51.436;6.774;2023-04-07T11:43:26;101269.75;;;10.42;100.00
13612;BME280;6877;51.436;6.774;2023-04-07T11:48:32;101277.34;;;10.65;100.00
13612;BME280;6877;51.436;6.774;2023-04-07T11:51:04;101274.66;;;10.73;100.00
13612;BME280;6877;51.436;6.774;2023-04-07T11:53:33;101274.47;;;10.90;100.00
13612;BME280;6877;51.436;6.774;2023-04-07T11:56:13;101277.13;;;10.88;100.00
13612;BME280;6877;51.436;6.774;2023-04-07T11:58:49;101284.97;;;10.88;100.00
13612;BME280;6877;51.436;6.774;2023-04-07T12:01:16;101281.41;;;10.96;100.00
13612;BME280;6877;51.436;6.774;2023-04-07T12:04:02;101286.50;;;11.08;100.00
13612;BME280;6877;51.436;6.774;2023-04-07T12:06:35;101291.06;;;10.87;100.00
13612;BME280;6877;51.436;6.774;2023-04-07T12:09:06;101295.63;;;10.73;100.00
13612;BME280;6877;51.436;6.774;2023-04-07T12:11:34;101297.50;;;10.56;100.00
13612;BME280;6877;51.436;6.774;2023-04-07T12:14:06;101305.56;;;10.36;100.00
13612;BME280;6877;51.436;6.774;2023-04-07T12:16:37;101310.91;;;10.19;100.00
13612;BME280;6877;51.436;6.774;2023-04-07T12:19:09;101308.41;;;10.04;100.00
13612;BME280;6877;51.436;6.774;2023-04-07T12:21:40;101312.81;;;9.97;100.00
13612;BME280;6877;51.436;6.774;2023-04-07T12:24:07;101310.25;;;9.86;100.00
13612;BME280;6877;51.436;6.774;2023-04-07T12:26:33;101307.75;;;9.72;100.00
13612;BME280;6877;51.436;6.774;2023-04-07T12:29:00;101313.91;;;9.58;100.00
13612;BME280;6877;51.436;6.774;2023-04-07T12:31:31;101309.66;;;9.46;100.00
13612;BME280;6877;51.436;6.774;2023-04-07T12:33:58;101309.66;;;9.41;100.00
13612;BME280;6877;51.436;6.774;2023-04-07T12:36:29;101309.66;;;9.46;100.00
13612;BME280;6877;51.436;6.774;2023-04-07T12:38:56;101315.75;;;9.40;100.00
13612;BME280;6877;51.436;6.774;2023-04-07T12:41:23;101313.97;;;9.45;100.00
13612;BME280;6877;51.436;6.774;2023-04-07T12:43:50;101317.41;;;9.57;100.00
13612;BME280;6877;51.436;6.774;2023-04-07T12:46:22;101321.72;;;9.65;100.00
13612;BME280;6877;51.436;6.774;2023-04-07T12:48:48;101325.19;;;9.72;100.00
13612;BME280;6877;51.436;6.774;2023-04-07T12:51:14;101319.16;;;9.58;100.00
13612;BME280;6877;51.436;6.774;2023-04-07T12:53:46;101324.47;;;9.38;100.00
13612;BME280;6877;51.436;6.774;2023-04-07T12:56:13;101327.13;;;9.25;100.00
13612;BME280;6877;51.436;6.774;2023-04-07T12:58:39;101323.66;;;9.17;100.00
13612;BME280;6877;51.436;6.774;2023-04-07T13:01:11;101329.78;;;9.16;100.00
13612;BME280;6877;51.436;6.774;2023-04-07T13:03:38;101324.56;;;9.16;100.00
13612;BME280;6877;51.436;6.774;2023-04-07T13:06:04;101327.97;;;9.34;100.00
13612;BME280;6877;51.436;6.774;2023-04-07T13:08:31;101338.31;;;9.60;100.00
13612;BME280;6877;51.436;6.774;2023-04-07T13:11:02;101326.00;;;9.74;100.00
13612;BME280;6877;51.436;6.774;2023-04-07T13:13:30;101326.78;;;9.93;100.00
13612;BME280;6877;51.436;6.774;2023-04-07T13:15:56;101331.97;;;9.99;100.00
13612;BME280;6877;51.436;6.774;2023-04-07T13:18:23;101333.63;;;10.12;100.00
13612;BME280;6877;51.436;6.774;2023-04-07T13:20:54;101327.59;;;10.06;100.00
13612;BME280;6877;51.436;6.774;2023-04-07T13:23:26;101331.97;;;9.99;100.00
13612;BME280;6877;51.436;6.774;2023-04-07T13:25:52;101335.31;;;10.18;100.00
13612;BME280;6877;51.436;6.774;2023-04-07T13:28:19;101344.03;;;10.17;100.00
13612;BME280;6877;51.436;6.774;2023-04-07T13:30:51;101337.88;;;10.24;100.00
13612;BME280;6877;51.436;6.774;2023-04-07T13:33:17;101333.56;;;10.28;100.00
13612;BME280;6877;51.436;6.774;2023-04-07T13:35:44;101337.94;;;10.16;100.00
13612;BME280;6877;51.436;6.774;2023-04-07T13:38:10;101337.13;;;10.08;100.00
13612;BME280;6877;51.436;6.774;2023-04-07T13:40:36;101339.84;;;9.94;100.00